Time;durP1;ratioP1;P1;durP2;ratioP2;P2;SDS_P1;SDS_P2;PMS_P1;PMS_P2;Temp;Humidity;BMP_temperature;BMP_pressure;BME280_temperature;BME280_humidity;BME280_pressure;Samples;Min_cycle;Max_cycle;Signal;HPM_P1;HPM_P2
2022/06/03 00:02:30;;;;;;;4.20;2.63;;;18.00;73.10;;;;;;4995130;28;20483;-68
2022/06/03 00:05:23;;;;;;;8.45;2.60;;;17.90;73.10;;;;;;4995357;28;20043;-68
2022/06/03 00:08:10;;;;;;;3.63;2.30;;;17.90;72.90;;;;;;4984594;28;20145;-68
2022/06/03 00:11:00;;;;;;;8.23;2.60;;;17.80;72.60;;;;;;4995352;28;20023;-68
2022/06/03 00:13:43;;;;;;;4.88;2.50;;;17.80;72.70;;;;;;4993210;28;20048;-68
2022/06/03 00:16:24;;;;;;;5.90;2.67;;;17.70;72.40;;;;;;4995619;28;20066;-68
2022/06/03 00:19:20;;;;;;;6.53;2.90;;;17.70;72.40;;;;;;4994924;28;20042;-68
2022/06/03 00:22:04;;;;;;;3.47;2.33;;;17.70;72.50;;;;;;4994046;28;20481;-68
2022/06/03 00:24:56;;;;;;;3.70;2.05;;;17.60;72.30;;;;;;4995355;28;20026;-68
2022/06/03 00:27:43;;;;;;;8.75;3.17;;;17.60;72.20;;;;;;4975750;28;20049;-68
2022/06/03 00:30:35;;;;;;;2.85;2.30;;;17.60;72.20;;;;;;4994757;28;20385;-68
2022/06/03 00:33:28;;;;;;;5.35;2.70;;;17.50;72.10;;;;;;4994897;28;20034;-68
2022/06/03 00:36:07;;;;;;;6.07;2.72;;;17.40;72.00;;;;;;4994400;28;20037;-69
2022/06/03 00:38:51;;;;;;;2.75;1.90;;;17.50;71.90;;;;;;4995714;28;20038;-68
2022/06/03 00:41:50;;;;;;;3.05;2.10;;;17.40;71.80;;;;;;4994931;28;20036;-68
2022/06/03 00:44:34;;;;;;;7.30;2.60;;;17.30;71.60;;;;;;4994449;28;20077;-68
2022/06/03 00:47:23;;;;;;;;;;;17.30;71.70;;;;;;4994256;28;20034;-68
2022/06/03 00:50:00;;;;;;;3.17;2.28;;;17.30;71.90;;;;;;4982839;28;20009;-68
2022/06/03 00:52:39;;;;;;;3.25;2.35;;;17.20;71.70;;;;;;4994099;28;20084;-68
2022/06/03 00:55:34;;;;;;;3.70;2.20;;;17.20;71.70;;;;;;4994637;28;20413;-68
2022/06/03 00:58:23;;;;;;;5.70;2.70;;;17.20;71.80;;;;;;4983284;28;20100;-68
2022/06/03 01:00:52;;;;;;;4.03;2.58;;;17.10;71.90;;;;;;4995040;28;20034;-68
2022/06/03 01:03:33;;;;;;;4.30;2.60;;;17.10;71.90;;;;;;4993296;28;20044;-69
2022/06/03 01:06:14;;;;;;;4.38;3.03;;;17.10;72.00;;;;;;4993367;28;20034;-68
2022/06/03 01:08:47;;;;;;;4.03;2.63;;;17.00;71.90;;;;;;4994506;28;20040;-69
2022/06/03 01:11:16;;;;;;;5.20;2.80;;;17.00;72.50;;;;;;4993023;28;20497;-69
2022/06/03 01:14:13;;;;;;;5.00;2.78;;;16.90;73.20;;;;;;4994940;28;20030;-69
2022/06/03 01:17:10;;;;;;;11.45;2.60;;;16.90;73.00;;;;;;4993546;28;20026;-69
2022/06/03 01:20:20;;;;;;;4.35;2.35;;;16.90;73.40;;;;;;4993979;28;20367;-69
2022/06/03 01:23:03;;;;;;;8.27;3.10;;;16.90;73.60;;;;;;4973505;28;20053;-68
2022/06/03 01:25:32;;;;;;;8.48;3.10;;;16.80;74.00;;;;;;4988090;28;20118;-69
2022/06/03 01:28:46;;;;;;;6.63;2.95;;;16.70;74.30;;;;;;4993905;28;20030;-69
2022/06/03 01:31:45;;;;;;;9.20;2.65;;;16.70;74.50;;;;;;4992616;28;20030;-68
2022/06/03 01:34:23;;;;;;;7.22;2.97;;;16.60;74.70;;;;;;4994154;28;20120;-69
2022/06/03 01:37:07;;;;;;;4.50;2.90;;;16.60;74.90;;;;;;4992229;28;20038;-69
2022/06/03 01:39:35;;;;;;;7.03;3.28;;;16.60;75.10;;;;;;4993788;28;20096;-69
2022/06/03 01:42:25;;;;;;;6.05;3.10;;;16.50;75.40;;;;;;4993801;28;20076;-69
2022/06/03 01:45:22;;;;;;;4.28;3.05;;;16.50;75.60;;;;;;4992634;28;20050;-69
2022/06/03 01:48:03;;;;;;;7.50;3.65;;;16.50;75.80;;;;;;4993927;28;20429;-68
2022/06/03 01:50:52;;;;;;;5.15;3.17;;;16.40;76.10;;;;;;4992754;28;20046;-69
2022/06/03 01:53:42;;;;;;;3.85;2.92;;;16.40;76.30;;;;;;4991240;28;20105;-68
2022/06/03 01:56:35;;;;;;;5.35;3.25;;;16.30;76.40;;;;;;4991849;28;20034;-69
2022/06/03 01:59:06;;;;;;;7.13;3.30;;;16.30;76.70;;;;;;4992770;28;20493;-68
2022/06/03 02:01:50;;;;;;;6.95;3.30;;;16.30;76.80;;;;;;4993493;28;20057;-68
2022/06/03 02:04:42;;;;;;;6.25;3.33;;;16.20;76.80;;;;;;4993132;28;20050;-69
2022/06/03 02:07:33;;;;;;;5.15;2.90;;;16.20;76.60;;;;;;4992692;28;20474;-68
2022/06/03 02:10:29;;;;;;;6.95;3.30;;;16.20;76.70;;;;;;4992913;28;20489;-68
2022/06/03 02:13:29;;;;;;;7.57;3.40;;;16.20;76.90;;;;;;4992221;28;20084;-69
2022/06/03 02:16:32;;;;;;;5.88;3.67;;;16.20;77.50;;;;;;4992509;28;20040;-69
2022/06/03 02:19:16;;;;;;;6.22;3.30;;;16.10;77.90;;;;;;4991781;28;20485;-69
2022/06/03 02:22:06;;;;;;;6.05;3.08;;;16.10;78.30;;;;;;4983010;28;20117;-68
2022/06/03 02:25:16;;;;;;;7.03;3.10;;;16.10;78.50;;;;;;4987821;28;20497;-69
2022/06/03 02:27:50;;;;;;;5.63;3.03;;;16.10;78.90;;;;;;4949866;29;20118;-69
2022/06/03 02:30:37;;;;;;;7.30;3.00;;;16.00;79.10;;;;;;4982172;28;20043;-69
2022/06/03 02:33:24;;;;;;;5.43;3.20;;;16.00;79.40;;;;;;4992100;28;20088;-69
2022/06/03 02:36:01;;;;;;;4.93;3.10;;;15.90;79.70;;;;;;4991157;28;20026;-69
2022/06/03 02:38:36;;;;;;;5.25;3.30;;;15.90;80.00;;;;;;4993475;28;20109;-68
2022/06/03 02:41:39;;;;;;;5.05;3.13;;;15.90;80.20;;;;;;4991279;28;20474;-68
2022/06/03 02:44:26;;;;;;;5.47;3.50;;;15.80;80.20;;;;;;4991557;28;20166;-68
2022/06/03 02:47:26;;;;;;;6.53;3.50;;;15.80;80.30;;;;;;4992540;28;20030;-69
2022/06/03 02:50:19;;;;;;;7.25;3.58;;;15.90;80.40;;;;;;4985893;28;20105;-69
2022/06/03 02:53:04;;;;;;;6.45;3.15;;;15.80;80.50;;;;;;4986956;28;20117;-69
2022/06/03 02:55:43;;;;;;;6.50;3.63;;;15.70;80.50;;;;;;4990846;28;20038;-70
2022/06/03 02:58:31;;;;;;;5.60;3.35;;;15.80;80.70;;;;;;4991286;28;20030;-69
2022/06/03 03:01:34;;;;;;;6.47;3.15;;;15.70;80.50;;;;;;4991799;28;20161;-69
2022/06/03 03:04:04;;;;;;;8.27;3.67;;;15.70;80.50;;;;;;4990282;28;20038;-69
2022/06/03 03:06:54;;;;;;;10.38;3.33;;;15.70;80.70;;;;;;4991513;28;20466;-69
2022/06/03 03:09:27;;;;;;;7.30;3.33;;;15.70;81.00;;;;;;4990260;28;20052;-69
2022/06/03 03:11:56;;;;;;;8.63;3.33;;;15.60;81.20;;;;;;4991484;28;20508;-69
2022/06/03 03:14:39;;;;;;;8.00;3.60;;;15.60;81.30;;;;;;4991999;28;20134;-69
2022/06/03 03:17:24;;;;;;;7.68;3.63;;;15.60;81.50;;;;;;4985258;28;20031;-69
2022/06/03 03:19:58;;;;;;;4.47;3.00;;;15.60;81.70;;;;;;4991739;28;20117;-69
2022/06/03 03:22:53;;;;;;;7.38;3.40;;;15.60;81.70;;;;;;4991973;28;20041;-68
2022/06/03 03:25:47;;;;;;;8.25;3.05;;;15.50;81.70;;;;;;4981897;28;20118;-69
2022/06/03 03:28:42;;;;;;;4.90;3.15;;;15.50;82.60;;;;;;4992211;28;20034;-69
2022/06/03 03:31:17;;;;;;;4.53;2.65;;;15.50;82.40;;;;;;4982622;28;20041;-69
2022/06/03 03:33:55;;;;;;;4.75;2.97;;;15.40;82.40;;;;;;4991476;28;20030;-68
2022/06/03 03:36:36;;;;;;;6.05;3.38;;;15.40;82.40;;;;;;4991277;28;20037;-69
2022/06/03 03:39:27;;;;;;;5.85;3.08;;;15.40;82.40;;;;;;4981832;28;20474;-69
2022/06/03 03:42:25;;;;;;;7.93;3.10;;;15.40;82.40;;;;;;4955263;28;20060;-69
2022/06/03 03:45:11;;;;;;;5.18;2.85;;;15.40;82.40;;;;;;4991356;28;20034;-69
2022/06/03 03:48:14;;;;;;;10.32;3.03;;;15.40;82.50;;;;;;4991983;28;20034;-69
2022/06/03 03:51:35;;;;;;;5.10;3.22;;;15.30;82.70;;;;;;4943975;28;20039;-68
2022/06/03 03:54:41;;;;;;;4.63;2.90;;;15.30;82.90;;;;;;4883123;29;20040;-69
2022/06/03 03:57:38;;;;;;;5.47;2.92;;;15.30;83.20;;;;;;4985706;28;20026;-68
2022/06/03 04:00:12;;;;;;;7.82;3.55;;;15.30;83.30;;;;;;4982389;28;20405;-69
2022/06/03 04:02:38;;;;;;;7.68;3.55;;;15.30;83.70;;;;;;4991677;28;20128;-69
2022/06/03 04:05:42;;;;;;;6.43;3.13;;;15.20;84.00;;;;;;4992426;28;20161;-69
2022/06/03 04:08:29;;;;;;;5.78;3.28;;;15.20;84.30;;;;;;4897893;29;20389;-68
2022/06/03 04:11:00;;;;;;;6.97;3.30;;;15.20;84.60;;;;;;4985271;28;20030;-69
2022/06/03 04:13:53;;;;;;;6.03;3.42;;;15.10;84.90;;;;;;4990303;28;20039;-69
2022/06/03 04:16:40;;;;;;;4.85;3.47;;;15.20;85.20;;;;;;4990109;28;20030;-69
2022/06/03 04:19:18;;;;;;;10.07;3.70;;;15.10;85.30;;;;;;4990649;28;20540;-69
2022/06/03 04:22:04;;;;;;;7.40;3.00;;;15.10;85.70;;;;;;4991752;28;20030;-69
2022/06/03 04:24:54;;;;;;;6.30;3.30;;;15.10;85.80;;;;;;4994318;28;20077;-68
2022/06/03 04:28:03;;;;;;;8.85;3.70;;;15.10;85.80;;;;;;4993358;28;20026;-68
2022/06/03 04:31:05;;;;;;;15.05;4.40;;;15.10;85.70;;;;;;4994418;28;20089;-68
2022/06/03 04:33:54;;;;;;;8.75;3.40;;;15.10;85.80;;;;;;4994589;28;20085;-69
2022/06/03 04:36:39;;;;;;;5.05;3.55;;;15.20;86.00;;;;;;4995016;28;20070;-68
2022/06/03 04:39:42;;;;;;;7.18;3.28;;;15.20;86.20;;;;;;4986796;28;20037;-69
2022/06/03 04:42:13;;;;;;;12.05;4.35;;;15.20;86.30;;;;;;4982668;28;20077;-69
2022/06/03 04:45:17;;;;;;;6.88;3.80;;;15.20;86.70;;;;;;4994919;28;20069;-68
2022/06/03 04:47:46;;;;;;;;;;;15.20;86.80;;;;;;4989671;28;20034;-69
2022/06/03 04:50:24;;;;;;;9.25;4.05;;;15.20;86.30;;;;;;4994531;28;19909;-69
2022/06/03 04:53:11;;;;;;;7.40;3.70;;;15.20;86.60;;;;;;4993933;28;20120;-69
2022/06/03 04:56:11;;;;;;;7.15;4.30;;;15.20;87.00;;;;;;4994076;28;20018;-69
2022/06/03 04:59:15;;;;;;;8.02;4.00;;;15.20;87.40;;;;;;4986544;28;20113;-69
2022/06/03 05:02:30;;;;;;;7.07;4.43;;;15.20;87.60;;;;;;4985534;28;20447;-68
2022/06/03 05:05:16;;;;;;;10.45;4.13;;;15.30;87.70;;;;;;4925038;28;20392;-68
2022/06/03 05:08:07;;;;;;;7.47;3.90;;;15.30;87.80;;;;;;4992683;28;20038;-70
2022/06/03 05:10:52;;;;;;;7.57;4.55;;;15.30;87.80;;;;;;4993470;28;20046;-67
2022/06/03 05:13:52;;;;;;;5.35;3.50;;;15.30;88.20;;;;;;4994360;28;20106;-67
2022/06/03 05:16:49;;;;;;;15.05;3.80;;;15.30;88.10;;;;;;4992431;28;20050;-65
2022/06/03 05:19:30;;;;;;;6.78;3.80;;;15.40;88.40;;;;;;4989151;28;20496;-66
2022/06/03 05:22:10;;;;;;;6.10;3.92;;;15.40;88.60;;;;;;4993830;28;20089;-65
2022/06/03 05:25:06;;;;;;;6.15;3.03;;;15.40;88.50;;;;;;4991791;28;20498;-65
2022/06/03 05:27:54;;;;;;;7.68;3.55;;;15.40;88.50;;;;;;4992619;28;20386;-65
2022/06/03 05:30:41;;;;;;;6.85;3.70;;;15.40;88.70;;;;;;4991454;28;20030;-71
2022/06/03 05:33:43;;;;;;;6.25;3.47;;;15.50;88.90;;;;;;4989559;28;20096;-66
2022/06/03 05:36:41;;;;;;;11.88;3.38;;;15.50;88.80;;;;;;4990021;28;20030;-68
2022/06/03 05:39:37;;;;;;;5.95;3.75;;;15.50;89.20;;;;;;4991101;28;20470;-67
2022/06/03 05:42:32;;;;;;;7.93;3.47;;;15.50;89.30;;;;;;4992050;28;20537;-67
2022/06/03 05:45:15;;;;;;;6.45;3.50;;;15.50;89.20;;;;;;4989952;28;20097;-67
2022/06/03 05:47:52;;;;;;;6.97;3.85;;;15.60;89.30;;;;;;4990194;28;20034;-67
2022/06/03 05:50:34;;;;;;;8.02;3.17;;;15.60;89.00;;;;;;4991148;28;20034;-67
2022/06/03 05:53:30;;;;;;;6.78;4.03;;;15.70;88.90;;;;;;4992887;28;20034;-66
2022/06/03 05:56:29;;;;;;;8.10;2.92;;;15.70;88.90;;;;;;4989102;28;20033;-68
2022/06/03 05:59:13;;;;;;;8.10;3.65;;;15.80;89.00;;;;;;4987746;28;20533;-68
2022/06/03 06:01:51;;;;;;;6.22;3.55;;;15.80;88.80;;;;;;4988292;28;20081;-67
2022/06/03 06:04:55;;;;;;;10.70;4.05;;;15.80;89.00;;;;;;4989088;28;20034;-68
2022/06/03 06:07:32;;;;;;;4.88;3.05;;;15.80;88.80;;;;;;4986605;28;20486;-69
2022/06/03 06:10:19;;;;;;;7.88;3.30;;;15.90;88.60;;;;;;4987763;28;20486;-69
2022/06/03 06:13:11;;;;;;;8.00;3.65;;;15.90;88.40;;;;;;4987836;28;20387;-69
2022/06/03 06:15:59;;;;;;;7.28;2.83;;;16.00;88.60;;;;;;4988174;28;20038;-70
2022/06/03 06:18:56;;;;;;;6.47;3.38;;;16.00;88.80;;;;;;4990890;28;20036;-69
2022/06/03 06:21:34;;;;;;;7.60;4.03;;;16.00;88.60;;;;;;4989409;28;20038;-71
2022/06/03 06:24:42;;;;;;;9.25;2.53;;;16.10;88.50;;;;;;4990684;28;20042;-69
2022/06/03 06:27:33;;;;;;;2.22;1.75;;;16.20;88.40;;;;;;4987991;28;20117;-68
2022/06/03 06:30:28;;;;;;;11.63;3.05;;;16.20;87.80;;;;;;4990191;28;20042;-68
2022/06/03 06:33:30;;;;;;;3.75;2.22;;;16.30;87.30;;;;;;4975234;28;20073;-68
2022/06/03 06:36:08;;;;;;;5.30;2.17;;;16.30;86.70;;;;;;4990331;28;20113;-67
2022/06/03 06:38:58;;;;;;;5.55;2.55;;;16.30;86.40;;;;;;4991676;28;20035;-68
2022/06/03 06:42:02;;;;;;;3.67;2.30;;;16.40;86.40;;;;;;4991738;28;20105;-68
2022/06/03 06:44:49;;;;;;;6.47;3.28;;;16.40;85.50;;;;;;4912065;29;20184;-68
2022/06/03 06:47:44;;;;;;;3.15;2.20;;;16.50;85.20;;;;;;4986651;28;20494;-68
2022/06/03 06:50:32;;;;;;;7.85;2.47;;;16.50;84.80;;;;;;4979789;28;20129;-68
2022/06/03 06:53:10;;;;;;;3.35;2.17;;;16.50;84.10;;;;;;4992293;28;20113;-69
2022/06/03 06:55:55;;;;;;;4.13;1.83;;;16.60;83.30;;;;;;4991638;28;20026;-68
2022/06/03 06:58:42;;;;;;;4.53;2.55;;;16.60;82.80;;;;;;4991770;28;20037;-68
2022/06/03 07:01:11;;;;;;;4.65;2.92;;;16.50;82.40;;;;;;4988491;28;20021;-68
2022/06/03 07:04:16;;;;;;;5.97;2.78;;;16.50;82.50;;;;;;4991896;28;20129;-68
2022/06/03 07:06:53;;;;;;;6.00;2.30;;;16.50;82.40;;;;;;4976569;28;20038;-68
2022/06/03 07:09:25;;;;;;;3.63;2.20;;;16.50;82.10;;;;;;4991153;28;20063;-68
2022/06/03 07:11:56;;;;;;;2.60;2.10;;;16.60;82.40;;;;;;4992550;28;20045;-68
2022/06/03 07:14:29;;;;;;;5.32;2.17;;;16.60;82.30;;;;;;4992575;28;20109;-68
2022/06/03 07:20:09;;;;;;;5.72;2.00;;;16.70;82.00;;;;;;4981617;28;20026;-68
2022/06/03 07:22:51;;;;;;;5.78;1.90;;;16.80;81.90;;;;;;4989969;28;20385;-68
2022/06/03 07:25:48;;;;;;;3.47;2.08;;;16.80;80.90;;;;;;4992524;28;20116;-69
2022/06/03 07:28:32;;;;;;;2.67;2.00;;;16.80;81.00;;;;;;4983895;28;20030;-68
2022/06/03 07:31:07;;;;;;;;;;;16.90;81.20;;;;;;4991252;28;20030;-68
2022/06/03 07:33:32;;;;;;;2.53;1.50;;;16.90;81.70;;;;;;4991914;28;20285;-68
2022/06/03 07:36:26;;;;;;;2.75;1.83;;;16.90;82.00;;;;;;4992867;28;20027;-68
2022/06/03 07:39:16;;;;;;;4.63;2.00;;;17.00;82.50;;;;;;4991250;28;20121;-68
2022/06/03 07:41:50;;;;;;;3.60;1.98;;;17.10;81.70;;;;;;4991842;28;20100;-68
2022/06/03 07:44:23;;;;;;;2.65;1.58;;;17.10;81.30;;;;;;4991784;28;20100;-68
2022/06/03 07:46:53;;;;;;;3.47;2.15;;;17.10;82.20;;;;;;4990975;28;20066;-68
2022/06/03 07:49:22;;;;;;;8.00;3.47;;;17.20;81.80;;;;;;4992606;28;20034;-68
2022/06/03 07:52:02;;;;;;;14.68;2.20;;;17.20;81.50;;;;;;4990791;28;20390;-68
2022/06/03 07:54:36;;;;;;;3.25;2.00;;;17.30;82.30;;;;;;4991601;28;20034;-68
2022/06/03 07:57:08;;;;;;;3.70;2.03;;;17.30;82.20;;;;;;4994624;28;20038;-68
2022/06/03 07:59:37;;;;;;;3.22;2.05;;;17.40;82.10;;;;;;4995061;28;20039;-68
2022/06/03 08:02:05;;;;;;;4.78;1.95;;;17.40;81.70;;;;;;4995699;28;20034;-68
2022/06/03 08:04:32;;;;;;;3.58;2.10;;;17.40;81.30;;;;;;4994056;28;20070;-68
2022/06/03 08:12:34;;;;;;;5.65;2.20;;;17.50;80.50;;;;;;4993057;28;20050;-68
2022/06/03 08:15:20;;;;;;;4.97;1.70;;;17.60;80.60;;;;;;4995575;28;20034;-68
2022/06/03 08:17:47;;;;;;;2.80;1.88;;;17.60;80.70;;;;;;4995412;28;20042;-68
2022/06/03 08:20:18;;;;;;;1.88;1.50;;;17.60;80.90;;;;;;4994943;28;20077;-68
2022/06/03 08:22:45;;;;;;;5.07;1.85;;;17.70;81.50;;;;;;4995478;28;20042;-68
2022/06/03 08:25:17;;;;;;;3.67;1.73;;;17.70;80.10;;;;;;4994933;28;20036;-68
2022/06/03 08:27:44;;;;;;;6.15;1.65;;;17.80;80.30;;;;;;4994712;28;20121;-68
2022/06/03 08:30:14;;;;;;;3.38;1.63;;;17.80;79.40;;;;;;4995090;28;20046;-68
2022/06/03 08:32:54;;;;;;;1.50;1.40;;;17.90;79.90;;;;;;4995593;28;20034;-68
2022/06/03 08:35:24;;;;;;;2.05;1.42;;;18.00;81.00;;;;;;4994886;28;20030;-68
2022/06/03 08:37:56;;;;;;;3.13;1.73;;;18.00;81.50;;;;;;4995355;28;20034;-68
2022/06/03 08:40:30;;;;;;;2.83;1.98;;;18.10;81.20;;;;;;4993949;28;20043;-68
2022/06/03 08:43:29;;;;;;;6.40;2.55;;;18.20;81.10;;;;;;4995600;28;20110;-68
2022/06/03 08:45:58;;;;;;;3.42;1.90;;;18.20;80.50;;;;;;4987953;28;20150;-68
2022/06/03 08:48:32;;;;;;;2.92;1.50;;;18.30;80.90;;;;;;4993042;28;20030;-68
2022/06/03 08:51:01;;;;;;;4.18;1.92;;;18.30;80.10;;;;;;4995128;28;20386;-68
2022/06/03 08:53:52;;;;;;;1.58;1.40;;;18.40;79.50;;;;;;4994538;28;20026;-68
2022/06/03 08:56:22;;;;;;;3.30;1.88;;;18.40;79.20;;;;;;4994296;28;20023;-68
2022/06/03 08:58:56;;;;;;;2.42;2.00;;;18.40;78.70;;;;;;4994661;28;20434;-68
2022/06/03 09:01:45;;;;;;;2.20;1.73;;;18.50;78.90;;;;;;4992737;28;20386;-68
2022/06/03 09:04:17;;;;;;;3.95;1.73;;;18.50;78.80;;;;;;4994251;28;20054;-68
2022/06/03 09:07:04;;;;;;;3.30;1.70;;;18.50;78.10;;;;;;4994465;28;20026;-68
2022/06/03 09:09:57;;;;;;;1.80;1.30;;;18.50;77.90;;;;;;4993269;28;20395;-68
2022/06/03 09:12:28;;;;;;;7.25;1.00;;;18.50;77.20;;;;;;4994016;28;21414;-68
2022/06/03 09:14:59;;;;;;;2.40;1.58;;;18.60;77.90;;;;;;4994358;28;20045;-68
2022/06/03 09:17:44;;;;;;;5.18;1.92;;;18.60;77.50;;;;;;4993978;28;20462;-68
2022/06/03 09:20:29;;;;;;;3.03;1.83;;;18.60;78.40;;;;;;4993753;28;20038;-69
2022/06/03 09:23:01;;;;;;;5.50;1.80;;;18.60;77.70;;;;;;4993353;28;20037;-68
2022/06/03 09:25:31;;;;;;;3.13;1.55;;;18.60;77.50;;;;;;4993853;28;20088;-68
2022/06/03 09:27:59;;;;;;;1.95;1.42;;;18.70;78.00;;;;;;4994509;28;20405;-68
2022/06/03 09:30:34;;;;;;;2.20;1.50;;;18.70;78.10;;;;;;4993044;28;20026;-68
2022/06/03 09:33:06;;;;;;;4.63;1.60;;;18.70;78.00;;;;;;4993781;28;20038;-68
2022/06/03 09:35:34;;;;;;;4.45;1.92;;;18.80;78.20;;;;;;4994088;28;20037;-68
2022/06/03 09:38:02;;;;;;;2.55;2.10;;;18.80;78.10;;;;;;4993241;28;20390;-68
2022/06/03 09:40:32;;;;;;;2.80;1.70;;;18.90;77.90;;;;;;4994448;28;20393;-68
2022/06/03 09:43:29;;;;;;;2.85;1.40;;;18.90;77.80;;;;;;4993268;28;20038;-68
2022/06/03 09:45:59;;;;;;;2.10;1.50;;;18.90;77.90;;;;;;4993698;28;20092;-66
2022/06/03 09:48:33;;;;;;;3.75;1.30;;;18.90;78.10;;;;;;4993254;28;20500;-66
2022/06/03 09:51:07;;;;;;;2.45;1.60;;;18.90;78.30;;;;;;4993085;28;20034;-66
2022/06/03 09:53:36;;;;;;;3.55;1.80;;;18.90;77.20;;;;;;4994200;28;20026;-66
2022/06/03 09:56:07;;;;;;;2.85;1.70;;;19.00;77.20;;;;;;4993730;28;20089;-68
2022/06/03 09:58:34;;;;;;;1.40;1.30;;;19.00;76.60;;;;;;4993309;28;20042;-69
2022/06/03 10:01:03;;;;;;;1.48;1.38;;;19.10;76.70;;;;;;4991055;28;20031;-69
2022/06/03 10:03:29;;;;;;;4.05;2.17;;;19.20;77.20;;;;;;4993836;28;20038;-68
2022/06/03 10:05:58;;;;;;;3.00;1.77;;;19.20;77.50;;;;;;4992557;28;20044;-68
2022/06/03 10:14:03;;;;;;;5.53;2.17;;;19.30;78.40;;;;;;4993183;28;20046;-66
2022/06/03 10:16:30;;;;;;;3.33;1.85;;;19.30;78.60;;;;;;4994071;28;20088;-66
2022/06/03 10:18:56;;;;;;;4.10;1.73;;;19.30;78.50;;;;;;4992084;28;20101;-66
2022/06/03 10:21:22;;;;;;;4.13;2.20;;;19.40;78.30;;;;;;4993968;28;20414;-66
2022/06/03 10:24:12;;;;;;;6.47;1.80;;;19.40;78.00;;;;;;4992174;28;20053;-66
2022/06/03 10:26:49;;;;;;;3.30;2.00;;;19.30;78.00;;;;;;4993232;28;20027;-66
2022/06/03 10:29:17;;;;;;;4.82;1.85;;;19.40;77.60;;;;;;4992601;28;20493;-66
2022/06/03 10:31:47;;;;;;;3.10;1.70;;;19.40;78.00;;;;;;4992666;28;20120;-66
2022/06/03 10:34:18;;;;;;;9.05;2.08;;;19.50;78.30;;;;;;4991145;28;20038;-66
2022/06/03 10:36:46;;;;;;;2.15;1.65;;;19.50;78.00;;;;;;4992932;28;20499;-66
2022/06/03 10:39:16;;;;;;;3.30;1.90;;;19.50;78.80;;;;;;4992960;28;20133;-66
2022/06/03 10:41:47;;;;;;;2.03;1.80;;;19.50;77.80;;;;;;4991714;28;20026;-67
2022/06/03 10:44:25;;;;;;;2.38;1.73;;;19.50;78.50;;;;;;4993239;28;20034;-66
2022/06/03 10:47:38;;;;;;;6.93;2.40;;;19.50;78.60;;;;;;4990756;28;20051;-66
2022/06/03 10:50:29;;;;;;;4.23;2.00;;;19.50;78.60;;;;;;4989890;28;20038;-67
2022/06/03 11:01:48;;;;;;;5.25;2.50;;;19.60;78.60;;;;;;4992218;28;20026;-67
2022/06/03 11:04:39;;;;;;;4.68;2.05;;;19.60;77.80;;;;;;4992484;28;20050;-66
2022/06/03 11:07:23;;;;;;;3.80;2.10;;;19.60;77.40;;;;;;4992287;28;20037;-66
2022/06/03 11:10:01;;;;;;;4.55;2.40;;;19.70;77.30;;;;;;4991010;28;20034;-66
2022/06/03 11:12:29;;;;;;;8.70;2.33;;;19.80;77.50;;;;;;4991634;28;20149;-66
2022/06/03 11:14:55;;;;;;;3.05;2.25;;;19.80;77.20;;;;;;4991961;28;20558;-66
2022/06/03 11:17:31;;;;;;;4.68;2.40;;;19.80;78.20;;;;;;4990583;28;20034;-67
2022/06/03 11:19:58;;;;;;;4.90;2.10;;;19.90;77.80;;;;;;4992767;28;20026;-66
2022/06/03 11:22:33;;;;;;;5.72;1.80;;;19.90;77.50;;;;;;4990955;28;20065;-66
2022/06/03 11:25:20;;;;;;;3.55;1.77;;;20.00;77.10;;;;;;4992662;28;20130;-65
2022/06/03 11:27:56;;;;;;;9.30;2.17;;;20.10;77.10;;;;;;4991736;28;20038;-65
2022/06/03 11:30:25;;;;;;;4.15;2.15;;;20.20;77.20;;;;;;4986604;28;20496;-66
2022/06/03 11:32:55;;;;;;;5.10;1.80;;;20.20;76.90;;;;;;4998265;28;20065;-65
2022/06/03 11:35:38;;;;;;;2.55;1.83;;;20.20;77.00;;;;;;4998407;28;20048;-66
2022/06/03 11:38:06;;;;;;;2.60;1.37;;;20.20;76.30;;;;;;4998741;28;20049;-65
2022/06/03 11:40:37;;;;;;;3.03;1.80;;;20.30;77.10;;;;;;4996914;28;20545;-65
2022/06/03 11:43:05;;;;;;;5.47;1.80;;;20.40;77.30;;;;;;4996641;28;20034;-66
2022/06/03 11:45:40;;;;;;;5.45;1.80;;;20.40;77.90;;;;;;4998174;28;20037;-65
2022/06/03 11:48:19;;;;;;;3.97;1.77;;;20.50;77.60;;;;;;4997195;28;20030;-65
2022/06/03 11:50:45;;;;;;;4.30;1.55;;;20.50;77.30;;;;;;4995116;28;20037;-66
2022/06/03 11:53:10;;;;;;;2.42;1.60;;;20.40;77.70;;;;;;4997566;28;20133;-65
2022/06/03 11:55:38;;;;;;;4.07;1.63;;;20.50;77.00;;;;;;4998595;28;20026;-65
2022/06/03 11:58:19;;;;;;;3.30;1.15;;;20.50;78.30;;;;;;4997530;28;20078;-65
2022/06/03 12:00:59;;;;;;;7.25;1.45;;;20.50;78.20;;;;;;4998387;28;20033;-68
2022/06/03 12:03:54;;;;;;;5.47;1.63;;;20.50;78.00;;;;;;4998163;28;20042;-66
2022/06/03 12:06:38;;;;;;;3.08;1.33;;;20.40;78.80;;;;;;4997023;28;20367;-65
2022/06/03 12:09:08;;;;;;;2.50;1.20;;;20.40;79.10;;;;;;4998116;28;20534;-65
2022/06/03 12:15:17;;;;;;;2.25;1.30;;;20.50;79.50;;;;;;4969145;28;20417;-66
2022/06/03 12:17:43;;;;;;;4.28;1.40;;;20.50;79.00;;;;;;4998086;28;20053;-66
2022/06/03 12:20:27;;;;;;;3.67;1.15;;;20.50;78.90;;;;;;4997651;28;20463;-65
2022/06/03 12:22:54;;;;;;;2.80;1.50;;;20.50;78.90;;;;;;4997516;28;20034;-68
2022/06/03 12:25:40;;;;;;;3.15;1.20;;;20.50;79.30;;;;;;4996823;28;20038;-66
2022/06/03 12:28:13;;;;;;;1.67;0.88;;;20.50;80.60;;;;;;4993951;28;20121;-66
2022/06/03 12:30:58;;;;;;;1.00;0.73;;;20.50;81.60;;;;;;4997807;28;20073;-66
2022/06/03 12:33:27;;;;;;;3.15;1.10;;;20.50;81.80;;;;;;4997324;28;20034;-65
2022/06/03 12:35:58;;;;;;;0.80;0.80;;;20.50;81.60;;;;;;4991927;28;20053;-67
2022/06/03 12:38:31;;;;;;;1.45;0.90;;;20.50;82.00;;;;;;4991628;28;20034;-65
2022/06/03 12:41:04;;;;;;;1.75;0.90;;;20.50;82.00;;;;;;4996987;28;20033;-65
2022/06/03 12:43:31;;;;;;;1.45;0.63;;;20.50;82.00;;;;;;4994400;28;20054;-65
2022/06/03 12:46:02;;;;;;;2.05;1.48;;;20.50;82.30;;;;;;4994058;28;20073;-65
2022/06/03 12:48:47;;;;;;;2.92;0.88;;;20.50;82.20;;;;;;4993556;28;20030;-65
2022/06/03 12:51:25;;;;;;;1.05;0.80;;;20.50;82.20;;;;;;4992150;28;20027;-67
2022/06/03 12:54:15;;;;;;;2.40;1.20;;;20.50;82.00;;;;;;4990445;28;20038;-66
2022/06/03 12:56:55;;;;;;;2.22;0.85;;;20.50;81.70;;;;;;4992532;28;20042;-66
2022/06/03 12:59:27;;;;;;;1.38;0.93;;;20.50;81.40;;;;;;4993697;28;20065;-67
2022/06/03 13:02:02;;;;;;;3.10;1.33;;;20.50;82.30;;;;;;4991732;28;20085;-70
2022/06/03 13:04:37;;;;;;;0.70;0.70;;;20.50;81.60;;;;;;4991367;28;20049;-66
2022/06/03 13:07:12;;;;;;;1.10;0.80;;;20.50;81.90;;;;;;4993323;28;20030;-65
2022/06/03 13:10:10;;;;;;;0.73;0.45;;;20.50;81.90;;;;;;4993736;28;20030;-64
2022/06/03 13:12:36;;;;;;;2.08;0.95;;;20.50;82.00;;;;;;4984424;28;20513;-65
2022/06/03 13:15:19;;;;;;;4.38;1.05;;;20.50;81.80;;;;;;4992144;28;20030;-69
2022/06/03 13:20:40;;;;;;;0.52;0.52;;;20.50;81.20;;;;;;4992515;28;20023;-65
2022/06/03 13:23:50;;;;;;;1.25;0.60;;;20.50;81.40;;;;;;4990499;28;20053;-65
2022/06/03 13:26:21;;;;;;;2.72;1.25;;;20.50;81.10;;;;;;4988602;28;20038;-64
2022/06/03 13:29:09;;;;;;;0.75;0.70;;;20.50;79.70;;;;;;4991667;28;20038;-66
2022/06/03 13:31:40;;;;;;;1.77;1.00;;;20.50;80.80;;;;;;4992174;28;20060;-66
2022/06/03 13:34:12;;;;;;;0.60;0.60;;;20.50;80.60;;;;;;4993292;28;20025;-65
2022/06/03 13:36:49;;;;;;;0.73;0.70;;;20.40;80.20;;;;;;4990336;28;20053;-66
2022/06/03 13:39:45;;;;;;;1.67;0.77;;;20.50;80.00;;;;;;4993319;28;20030;-64
2022/06/03 13:45:01;;;;;;;0.68;0.60;;;20.40;80.10;;;;;;4990238;28;20050;-67
2022/06/03 13:47:42;;;;;;;1.60;0.80;;;20.40;79.60;;;;;;4993143;28;20019;-67
2022/06/03 13:50:14;;;;;;;0.93;0.70;;;20.40;80.10;;;;;;4992595;28;20030;-65
2022/06/03 13:52:45;;;;;;;4.22;0.82;;;20.40;79.90;;;;;;4993091;28;20015;-66
2022/06/03 13:55:32;;;;;;;2.08;1.20;;;20.40;79.10;;;;;;4988324;28;20045;-66
2022/06/03 13:58:22;;;;;;;4.25;0.98;;;20.40;79.20;;;;;;4989500;28;20116;-66
2022/06/03 14:00:51;;;;;;;2.85;0.93;;;20.40;80.10;;;;;;4989377;28;20030;-67
2022/06/03 14:03:40;;;;;;;0.50;0.50;;;20.50;79.60;;;;;;4991705;28;20120;-65
2022/06/03 14:06:26;;;;;;;3.28;0.93;;;20.50;79.60;;;;;;4991042;28;20027;-66
2022/06/03 14:09:16;;;;;;;2.90;0.73;;;20.50;79.30;;;;;;4947000;28;20065;-66
2022/06/03 14:11:55;;;;;;;1.75;0.90;;;20.50;79.00;;;;;;4990479;28;20072;-66
2022/06/03 14:14:32;;;;;;;1.05;0.77;;;20.50;78.30;;;;;;4991393;28;20042;-64
2022/06/03 14:16:57;;;;;;;0.40;0.40;;;20.50;79.30;;;;;;4990098;28;20042;-65
2022/06/03 14:19:49;;;;;;;0.43;0.43;;;20.50;78.60;;;;;;4989867;28;20026;-66
2022/06/03 14:22:30;;;;;;;3.05;0.80;;;20.50;78.50;;;;;;4989429;28;20062;-65
2022/06/03 14:25:20;;;;;;;3.53;1.00;;;20.50;78.10;;;;;;4989291;28;20536;-67
2022/06/03 14:28:12;;;;;;;1.17;0.57;;;20.50;77.90;;;;;;4990881;28;20053;-66
2022/06/03 14:30:47;;;;;;;6.25;1.08;;;20.50;78.80;;;;;;4989709;28;20065;-66
2022/06/03 14:33:15;;;;;;;2.40;1.08;;;20.50;78.50;;;;;;4988946;28;20033;-66
2022/06/03 14:35:46;;;;;;;0.80;0.70;;;20.50;77.50;;;;;;4989659;28;20038;-66
2022/06/03 14:38:21;;;;;;;3.65;1.17;;;20.50;78.30;;;;;;4987410;28;20053;-66